createdAt,value
2019-05-14T00:00:32.161Z,23.00
2019-05-14T00:03:02.290Z,22.70
2019-05-14T00:05:32.192Z,23.00
2019-05-14T00:08:02.273Z,22.40
2019-05-14T00:10:32.147Z,22.40
2019-05-14T00:13:01.695Z,22.30
2019-05-14T00:15:32.215Z,22.90
2019-05-14T00:18:01.208Z,23.50
2019-05-14T00:20:31.403Z,23.10
2019-05-14T00:23:01.469Z,23.30
2019-05-14T00:25:31.280Z,23.60
2019-05-14T00:28:01.365Z,23.60
2019-05-14T00:30:31.749Z,24.00
2019-05-14T00:33:01.298Z,25.20
2019-05-14T00:35:32.015Z,25.40
2019-05-14T00:38:01.369Z,25.20
2019-05-14T00:40:31.402Z,25.00
2019-05-14T00:43:02.438Z,24.70
2019-05-14T00:45:31.265Z,24.70
2019-05-14T00:48:01.462Z,24.60
2019-05-14T00:50:31.715Z,24.10
2019-05-14T00:53:01.878Z,23.90
2019-05-14T00:55:31.677Z,25.70
2019-05-14T00:58:02.399Z,26.50
2019-05-14T01:00:31.328Z,26.80
2019-05-14T01:03:01.978Z,26.50
2019-05-14T01:05:32.094Z,26.70
2019-05-14T01:08:01.923Z,28.60
2019-05-14T01:10:31.409Z,30.20
2019-05-14T01:13:01.241Z,31.30
2019-05-14T01:15:32.072Z,31.80
2019-05-14T01:18:02.230Z,31.70
2019-05-14T01:20:31.946Z,31.40
2019-05-14T01:23:02.191Z,31.70
2019-05-14T01:25:31.758Z,31.60
2019-05-14T01:28:02.081Z,30.50
2019-05-14T01:30:31.944Z,32.40
2019-05-14T01:33:01.757Z,34.40
2019-05-14T01:35:31.632Z,35.00
2019-05-14T01:38:02.560Z,34.80
2019-05-14T01:40:31.552Z,33.40
2019-05-14T01:43:02.373Z,31.70
2019-05-14T01:45:31.687Z,32.00
2019-05-14T01:48:01.297Z,32.00
2019-05-14T01:50:32.020Z,31.50
2019-05-14T01:53:01.189Z,31.10
2019-05-14T01:55:32.304Z,32.10
2019-05-14T01:58:02.142Z,33.20
2019-05-14T02:00:31.436Z,33.40
2019-05-14T02:03:01.863Z,34.90
2019-05-14T02:05:31.115Z,34.80
2019-05-14T02:08:01.666Z,33.40
2019-05-14T02:10:31.508Z,31.70
2019-05-14T02:13:01.952Z,31.80
2019-05-14T02:15:39.216Z,31.80
2019-05-14T02:18:02.227Z,30.40
2019-05-14T02:20:32.197Z,29.70
2019-05-14T02:23:01.514Z,28.90
2019-05-14T02:25:31.988Z,28.00
2019-05-14T02:28:01.390Z,28.20
2019-05-14T02:30:46.045Z,29.00
2019-05-14T02:33:00.194Z,28.50
2019-05-14T02:35:29.803Z,27.70
2019-05-14T02:37:59.643Z,26.70
2019-05-14T02:40:29.543Z,27.90
2019-05-14T02:42:59.249Z,27.90
2019-05-14T02:45:30.293Z,26.80
2019-05-14T02:48:00.411Z,26.40
2019-05-14T02:50:29.487Z,27.30
2019-05-14T02:52:59.861Z,27.20
2019-05-14T02:55:29.894Z,27.10
2019-05-14T02:57:59.730Z,27.60
2019-05-14T03:00:30.132Z,27.30
2019-05-14T03:02:59.796Z,27.10
2019-05-14T03:05:29.504Z,28.10
2019-05-14T03:07:59.903Z,30.00
2019-05-14T03:10:30.183Z,31.60
2019-05-14T03:12:59.130Z,31.60
2019-05-14T03:15:29.156Z,33.10
2019-05-14T03:17:59.887Z,32.10
2019-05-14T03:20:28.893Z,32.20
2019-05-14T03:23:05.010Z,33.00
2019-05-14T03:25:30.080Z,33.00
2019-05-14T03:27:59.873Z,33.40
2019-05-14T03:30:32.195Z,33.10
2019-05-14T03:33:02.620Z,35.20
2019-05-14T03:35:40.776Z,35.70
2019-05-14T03:38:00.383Z,36.50
2019-05-14T03:40:29.386Z,35.70
2019-05-14T03:42:59.833Z,33.80
2019-05-14T03:45:29.950Z,33.40
2019-05-14T03:47:58.943Z,35.10
2019-05-14T03:50:29.768Z,33.40
2019-05-14T03:52:59.418Z,33.80
2019-05-14T03:55:29.262Z,34.60
2019-05-14T03:57:59.449Z,34.50
2019-05-14T04:00:50.214Z,33.80
2019-05-14T04:03:19.766Z,33.60
2019-05-14T04:05:49.740Z,32.50
2019-05-14T04:08:21.381Z,31.60
2019-05-14T04:10:53.682Z,32.70
2019-05-14T04:13:19.940Z,33.70
2019-05-14T04:15:49.796Z,33.20
2019-05-14T04:18:18.659Z,33.30
2019-05-14T04:20:50.064Z,32.90
2019-05-14T04:23:19.875Z,32.30
2019-05-14T04:25:49.819Z,34.00
2019-05-14T04:28:19.374Z,32.90
2019-05-14T04:30:49.303Z,32.30
2019-05-14T04:33:19.071Z,32.60
2019-05-14T04:35:49.035Z,32.60
2019-05-14T04:38:20.188Z,32.40
2019-05-14T04:40:49.369Z,32.60
2019-05-14T04:43:19.207Z,32.60
2019-05-14T04:45:49.895Z,31.60
2019-05-14T04:48:30.995Z,32.20
2019-05-14T04:50:49.711Z,31.70
2019-05-14T04:53:19.519Z,31.20
2019-05-14T04:55:49.447Z,32.50
2019-05-14T04:58:21.592Z,33.00
2019-05-14T05:00:49.989Z,34.70
2019-05-14T05:03:19.950Z,38.80
2019-05-14T05:05:49.921Z,39.40
2019-05-14T05:08:19.862Z,38.00
2019-05-14T05:10:49.486Z,38.00
2019-05-14T05:13:18.552Z,38.50
2019-05-14T05:15:48.688Z,37.20
2019-05-14T05:18:18.625Z,37.30
2019-05-14T05:20:50.244Z,39.00
2019-05-14T05:23:18.931Z,39.90
2019-05-14T05:25:49.028Z,39.30
2019-05-14T05:28:19.023Z,39.40
2019-05-14T05:30:49.117Z,37.90
2019-05-14T05:33:18.776Z,36.60
2019-05-14T05:35:48.681Z,36.40
2019-05-14T05:38:18.384Z,36.20
2019-05-14T05:40:48.552Z,35.50
2019-05-14T05:43:19.150Z,33.90
2019-05-14T05:45:48.570Z,33.50
2019-05-14T05:48:18.784Z,36.00
2019-05-14T05:50:48.430Z,38.30
2019-05-14T05:53:19.265Z,39.10
2019-05-14T05:55:48.455Z,40.10
2019-05-14T05:58:19.500Z,41.40
2019-05-14T06:00:49.660Z,41.00
2019-05-14T06:03:20.639Z,42.00
2019-05-14T06:05:49.234Z,40.80
2019-05-14T06:08:18.906Z,40.50
2019-05-14T06:10:48.992Z,41.20
2019-05-14T06:13:18.282Z,41.40
2019-05-14T06:15:49.418Z,42.50
2019-05-14T06:18:19.522Z,42.60
2019-05-14T06:20:49.390Z,43.20
2019-05-14T06:23:18.917Z,41.30
2019-05-14T06:25:49.136Z,39.80
2019-05-14T06:28:20.910Z,41.20
2019-05-14T06:30:48.472Z,40.70
2019-05-14T06:33:19.431Z,41.40
2019-05-14T06:35:48.563Z,41.30
2019-05-14T06:38:18.540Z,41.50
2019-05-14T06:40:49.011Z,41.40
2019-05-14T06:43:19.025Z,41.50
2019-05-14T06:45:49.566Z,43.80
2019-05-14T06:48:30.106Z,43.90
2019-05-14T06:50:50.310Z,42.30
2019-05-14T06:53:19.427Z,42.40
2019-05-14T06:55:48.478Z,40.60
2019-05-14T06:58:20.214Z,42.20
2019-05-14T07:00:49.530Z,42.10
2019-05-14T07:03:18.032Z,42.90
2019-05-14T07:05:49.111Z,42.80
2019-05-14T07:08:18.828Z,42.90
2019-05-14T07:10:48.564Z,43.30
2019-05-14T07:13:18.929Z,42.10
2019-05-14T07:15:48.912Z,42.00
2019-05-14T07:18:19.079Z,39.90
2019-05-14T07:20:48.569Z,39.30
2019-05-14T07:23:19.376Z,40.90
2019-05-14T07:25:48.348Z,42.60
2019-05-14T07:28:19.167Z,45.90
2019-05-14T07:30:48.490Z,45.00
2019-05-14T07:33:18.304Z,45.10
2019-05-14T07:35:48.743Z,44.00
2019-05-14T07:38:19.364Z,43.90
2019-05-14T07:40:49.426Z,44.30
2019-05-14T07:43:18.852Z,42.90
2019-05-14T07:45:49.205Z,43.20
2019-05-14T07:48:18.971Z,45.60
2019-05-14T07:50:51.295Z,45.00
2019-05-14T07:53:18.065Z,45.10
2019-05-14T07:55:49.084Z,45.20
2019-05-14T07:58:19.569Z,44.70
2019-05-14T08:00:49.202Z,43.50
2019-05-14T08:03:19.024Z,42.00
2019-05-14T08:05:48.331Z,40.40
2019-05-14T08:08:18.723Z,39.60
2019-05-14T08:10:48.736Z,41.10
2019-05-14T08:13:19.053Z,43.70
2019-05-14T08:15:49.046Z,45.00
2019-05-14T08:18:18.981Z,45.40
2019-05-14T08:20:48.609Z,44.40
2019-05-14T08:23:18.401Z,42.70
2019-05-14T08:25:48.098Z,41.50
2019-05-14T08:28:18.765Z,42.10
2019-05-14T08:30:49.126Z,44.00
2019-05-14T08:33:18.447Z,42.30
2019-05-14T08:35:48.982Z,43.00
2019-05-14T08:38:18.474Z,42.40
2019-05-14T08:40:48.848Z,41.00
2019-05-14T08:43:18.468Z,42.00
2019-05-14T08:45:48.819Z,41.60
2019-05-14T08:48:18.999Z,41.30
2019-05-14T08:50:48.119Z,42.20
2019-05-14T08:53:18.594Z,43.00
2019-05-14T08:55:48.711Z,40.70
2019-05-14T08:58:20.023Z,38.00
2019-05-14T09:00:48.294Z,37.20
2019-05-14T09:03:19.262Z,37.30
2019-05-14T09:05:49.189Z,37.70
2019-05-14T09:08:19.186Z,38.80
2019-05-14T09:10:50.329Z,39.50
2019-05-14T09:13:19.947Z,39.70
2019-05-14T09:15:49.052Z,39.90
2019-05-14T09:18:18.481Z,37.90
2019-05-14T09:20:48.810Z,39.10
2019-05-14T09:23:18.992Z,37.30
2019-05-14T09:25:52.366Z,37.70
2019-05-14T09:28:18.941Z,36.50
2019-05-14T09:30:48.785Z,36.00
2019-05-14T09:33:18.946Z,36.20
2019-05-14T09:35:49.308Z,33.40
2019-05-14T09:38:18.807Z,34.60
2019-05-14T09:40:48.913Z,32.50
2019-05-14T09:43:18.180Z,34.10
2019-05-14T09:45:48.217Z,33.90
2019-05-14T09:48:18.118Z,33.10
2019-05-14T09:50:48.767Z,33.70
2019-05-14T09:53:18.146Z,32.20
2019-05-14T09:55:48.962Z,32.60
2019-05-14T09:58:19.906Z,32.80
2019-05-14T10:00:48.501Z,30.70
2019-05-14T10:03:19.239Z,29.30
2019-05-14T10:05:49.986Z,29.80
2019-05-14T10:08:19.288Z,30.20
2019-05-14T10:10:48.852Z,30.70
2019-05-14T10:13:17.480Z,31.00
2019-05-14T10:15:48.441Z,31.40
2019-05-14T10:18:16.205Z,32.20
2019-05-14T10:20:45.951Z,31.00
2019-05-14T10:23:14.810Z,31.50
2019-05-14T10:25:43.398Z,31.10
2019-05-14T10:28:11.924Z,30.10
2019-05-14T10:30:40.358Z,30.50
2019-05-14T10:33:14.714Z,31.30
2019-05-14T10:35:39.265Z,32.00
2019-05-14T10:38:08.856Z,31.00
2019-05-14T10:40:38.406Z,29.80
2019-05-14T10:43:09.168Z,30.00
2019-05-14T10:45:38.516Z,29.30
2019-05-14T10:48:09.504Z,28.60
2019-05-14T10:50:55.042Z,28.20
2019-05-14T10:53:08.986Z,28.20
2019-05-14T10:55:38.633Z,27.20
2019-05-14T10:58:08.895Z,27.20
2019-05-14T11:00:41.583Z,27.00
2019-05-14T11:03:07.935Z,28.20
2019-05-14T11:05:41.215Z,28.30
2019-05-14T11:08:06.586Z,27.80
2019-05-14T11:10:35.203Z,28.10
2019-05-14T11:13:03.742Z,28.60
2019-05-14T11:15:32.279Z,29.30
2019-05-14T11:18:00.821Z,28.70
2019-05-14T11:20:31.063Z,30.00
2019-05-14T11:22:59.468Z,28.40
2019-05-14T11:25:28.740Z,28.00
2019-05-14T11:27:58.695Z,27.00
2019-05-14T11:30:28.783Z,26.70
2019-05-14T11:32:58.412Z,25.90
2019-05-14T11:35:28.834Z,25.90
2019-05-14T11:37:58.851Z,25.90
2019-05-14T11:40:29.354Z,24.80
2019-05-14T11:42:59.288Z,24.00
2019-05-14T11:45:27.926Z,24.30
2019-05-14T11:47:58.181Z,25.00
2019-05-14T11:50:28.633Z,25.40
2019-05-14T11:52:58.517Z,25.00
2019-05-14T11:55:27.237Z,25.70
2019-05-14T11:57:58.055Z,25.50
2019-05-14T12:00:29.320Z,25.00
2019-05-14T12:02:58.657Z,26.10
2019-05-14T12:05:26.687Z,25.40
2019-05-14T12:07:55.221Z,25.30
2019-05-14T12:10:23.616Z,25.70
2019-05-14T12:12:52.201Z,25.40
2019-05-14T12:15:20.871Z,26.10
2019-05-14T12:17:51.018Z,25.90
2019-05-14T12:20:19.639Z,26.80
2019-05-14T12:22:48.768Z,27.30
2019-05-14T12:25:18.865Z,27.30
2019-05-14T12:27:49.561Z,26.10
2019-05-14T12:30:19.701Z,26.80
2019-05-14T12:32:50.047Z,26.70
2019-05-14T12:35:19.761Z,26.70
2019-05-14T12:37:48.777Z,25.70
2019-05-14T12:40:19.388Z,26.30
2019-05-14T12:42:49.671Z,26.40
2019-05-14T12:45:19.177Z,26.70
2019-05-14T12:47:50.038Z,26.60
2019-05-14T12:50:20.889Z,26.50
2019-05-14T12:52:49.451Z,26.70
2019-05-14T12:55:19.482Z,26.40
2019-05-14T12:57:48.648Z,25.70
2019-05-14T13:00:17.588Z,25.60
2019-05-14T13:02:46.228Z,24.60
2019-05-14T13:05:14.857Z,25.10
2019-05-14T13:07:43.448Z,25.10
2019-05-14T13:10:12.040Z,25.30
2019-05-14T13:12:40.519Z,25.70
2019-05-14T13:15:09.162Z,25.80
2019-05-14T13:17:38.820Z,26.40
2019-05-14T13:20:13.736Z,25.80
2019-05-14T13:22:45.900Z,25.80
2019-05-14T13:25:11.057Z,26.30
2019-05-14T13:27:39.963Z,26.80
2019-05-14T13:30:09.468Z,26.50
2019-05-14T13:32:39.339Z,26.30
2019-05-14T13:35:12.552Z,25.10
2019-05-14T13:37:39.900Z,26.10
2019-05-14T13:40:09.499Z,26.30
2019-05-14T13:42:39.538Z,26.30
2019-05-14T13:45:10.268Z,26.80
2019-05-14T13:47:38.863Z,26.50
2019-05-14T13:50:08.493Z,26.60
2019-05-14T13:52:40.346Z,25.00
2019-05-14T13:55:10.135Z,25.40
2019-05-14T13:57:39.754Z,24.60
2019-05-14T14:00:11.756Z,24.50
2019-05-14T14:02:39.087Z,25.10
2019-05-14T14:05:08.547Z,24.00
2019-05-14T14:07:39.555Z,23.70
2019-05-14T14:10:08.926Z,23.80
2019-05-14T14:12:40.452Z,24.00
2019-05-14T14:15:09.934Z,24.10
2019-05-14T14:17:39.351Z,24.80
2019-05-14T14:20:08.383Z,25.00
2019-05-14T14:22:40.034Z,25.10
2019-05-14T14:25:09.014Z,25.80
2019-05-14T14:27:40.605Z,26.00
2019-05-14T14:30:09.207Z,26.10
2019-05-14T14:32:40.552Z,24.40
2019-05-14T14:35:08.815Z,24.40
2019-05-14T14:37:39.608Z,24.40
2019-05-14T14:40:09.967Z,25.00
2019-05-14T14:42:39.945Z,24.10
2019-05-14T14:45:08.766Z,24.90
2019-05-14T14:47:39.497Z,25.70
2019-05-14T14:50:09.196Z,25.20
2019-05-14T14:52:37.882Z,24.50
2019-05-14T14:55:06.623Z,24.50
2019-05-14T14:57:35.126Z,24.50
2019-05-14T15:00:04.956Z,23.70
2019-05-14T15:02:33.464Z,25.00
2019-05-14T15:05:01.953Z,25.00
2019-05-14T15:07:30.501Z,24.40
2019-05-14T15:09:59.662Z,23.50
2019-05-14T15:12:29.065Z,23.80
2019-05-14T15:14:59.414Z,24.00
2019-05-14T15:17:29.503Z,22.60
2019-05-14T15:19:59.458Z,23.10
2019-05-14T15:22:30.886Z,23.30
2019-05-14T15:24:58.777Z,23.40
2019-05-14T15:27:28.248Z,23.60
2019-05-14T15:29:59.378Z,23.40
2019-05-14T15:32:30.049Z,23.50
2019-05-14T15:34:59.308Z,23.40
2019-05-14T15:37:28.635Z,23.60
2019-05-14T15:39:58.005Z,23.50
2019-05-14T15:42:28.302Z,24.20
2019-05-14T15:44:59.597Z,23.90
2019-05-14T15:47:29.484Z,24.50
2019-05-14T15:49:59.466Z,26.20
2019-05-14T15:52:29.102Z,26.80
2019-05-14T15:54:57.956Z,26.30
2019-05-14T15:57:28.854Z,26.30
2019-05-14T16:00:00.781Z,25.80
2019-05-14T16:02:29.619Z,26.00
2019-05-14T16:04:59.160Z,25.10
2019-05-14T16:07:29.274Z,24.40
2019-05-14T16:10:00.667Z,24.20
2019-05-14T16:12:32.154Z,24.40
2019-05-14T16:14:58.786Z,24.40
2019-05-14T16:17:30.202Z,24.70
2019-05-14T16:19:57.749Z,23.90
2019-05-14T16:22:26.296Z,24.20
2019-05-14T16:24:57.152Z,25.00
2019-05-14T16:27:25.020Z,25.10
2019-05-14T16:29:53.573Z,24.50
2019-05-14T16:32:22.200Z,25.10
2019-05-14T16:34:50.818Z,25.10
2019-05-14T16:37:19.746Z,24.00
2019-05-14T16:39:48.870Z,23.90
2019-05-14T16:42:20.775Z,24.00
2019-05-14T16:44:48.597Z,25.30
2019-05-14T16:47:18.870Z,25.20
2019-05-14T16:49:48.291Z,24.90
2019-05-14T16:52:18.090Z,24.30
2019-05-14T16:54:48.792Z,24.50
2019-05-14T16:57:18.546Z,25.10
2019-05-14T16:59:49.626Z,25.80
2019-05-14T17:02:19.109Z,25.90
2019-05-14T17:04:48.332Z,26.00
2019-05-14T17:07:18.241Z,25.70
2019-05-14T17:09:49.291Z,25.40
2019-05-14T17:12:22.096Z,25.10
2019-05-14T17:14:47.847Z,25.50
2019-05-14T17:17:16.474Z,24.30
2019-05-14T17:19:45.170Z,24.00
2019-05-14T17:22:27.684Z,23.50
2019-05-14T17:24:44.186Z,24.60
2019-05-14T17:27:12.751Z,24.40
2019-05-14T17:29:41.447Z,24.80
2019-05-14T17:32:10.106Z,25.20
2019-05-14T17:34:38.877Z,25.30
2019-05-14T17:37:08.968Z,25.40
2019-05-14T17:39:38.707Z,25.40
2019-05-14T17:42:11.412Z,25.00
2019-05-14T17:44:38.887Z,25.10
2019-05-14T17:47:07.677Z,24.80
2019-05-14T17:49:36.242Z,24.00
2019-05-14T17:52:05.250Z,24.50
2019-05-14T17:54:33.940Z,25.40
2019-05-14T17:57:02.584Z,26.40
2019-05-14T17:59:33.578Z,26.40
2019-05-14T18:02:01.424Z,26.10
2019-05-14T18:04:30.105Z,25.70
2019-05-14T18:06:59.174Z,26.50
2019-05-14T18:09:29.301Z,26.10
2019-05-14T18:11:58.593Z,25.20
2019-05-14T18:14:28.395Z,25.20
2019-05-14T18:16:58.506Z,25.20
2019-05-14T18:19:28.974Z,25.70
2019-05-14T18:21:59.337Z,26.30
2019-05-14T18:24:28.600Z,25.60
2019-05-14T18:27:00.474Z,25.50
2019-05-14T18:29:29.615Z,25.50
2019-05-14T18:32:01.397Z,25.90
2019-05-14T18:34:28.860Z,26.50
2019-05-14T18:37:00.697Z,26.40
2019-05-14T18:39:28.396Z,26.30
2019-05-14T18:42:00.619Z,26.20
2019-05-14T18:44:28.439Z,26.00
2019-05-14T18:46:59.357Z,26.20
2019-05-14T18:49:28.758Z,26.10
2019-05-14T18:51:59.316Z,25.80
2019-05-14T18:54:29.392Z,25.30
2019-05-14T18:56:59.665Z,25.30
2019-05-14T18:59:30.839Z,26.10
2019-05-14T19:01:59.519Z,27.00
2019-05-14T19:04:28.283Z,27.60
2019-05-14T19:06:58.974Z,27.80
2019-05-14T19:09:29.233Z,27.10
2019-05-14T19:11:58.753Z,26.90
2019-05-14T19:14:29.299Z,27.40
2019-05-14T19:16:58.485Z,27.40
2019-05-14T19:19:29.389Z,27.20
2019-05-14T19:21:58.347Z,26.70
2019-05-14T19:24:28.651Z,27.00
2019-05-14T19:26:59.551Z,27.50
2019-05-14T19:29:28.285Z,27.30
2019-05-14T19:31:56.971Z,27.40
2019-05-14T19:34:25.702Z,27.20
2019-05-14T19:36:54.482Z,27.00
2019-05-14T19:39:23.904Z,27.40
2019-05-14T19:41:53.324Z,27.90
2019-05-14T19:44:22.379Z,27.10
2019-05-14T19:46:51.624Z,26.90
2019-05-14T19:49:21.475Z,26.80
2019-05-14T19:51:50.669Z,28.00
2019-05-14T19:54:20.139Z,28.20
2019-05-14T19:56:56.611Z,28.10
2019-05-14T19:59:20.254Z,28.20
2019-05-14T20:01:49.457Z,27.90
2019-05-14T20:04:18.445Z,27.90
2019-05-14T20:06:49.434Z,27.40
2019-05-14T20:09:19.485Z,27.40
2019-05-14T20:11:49.165Z,27.40
2019-05-14T20:14:18.359Z,27.80
2019-05-14T20:16:49.094Z,27.20
2019-05-14T20:19:20.499Z,27.50
2019-05-14T20:21:49.576Z,28.80
2019-05-14T20:24:18.881Z,28.30
2019-05-14T20:26:48.818Z,28.40
2019-05-14T20:29:19.460Z,28.30
2019-05-14T20:31:48.316Z,28.10
2019-05-14T20:34:19.146Z,27.60
2019-05-14T20:36:48.360Z,27.40
2019-05-14T20:39:18.220Z,27.50
2019-05-14T20:41:49.057Z,27.40
2019-05-14T20:44:18.911Z,27.30
2019-05-14T20:46:48.967Z,27.50
2019-05-14T20:49:19.322Z,27.90
2019-05-14T20:51:49.482Z,28.80
2019-05-14T20:54:18.521Z,28.60
2019-05-14T20:56:49.241Z,28.70
2019-05-14T20:59:19.084Z,28.00
2019-05-14T21:01:48.550Z,27.70
2019-05-14T21:04:18.929Z,28.10
2019-05-14T21:06:48.617Z,28.40
2019-05-14T21:09:19.124Z,27.90
2019-05-14T21:11:49.235Z,28.50
2019-05-14T21:14:18.440Z,28.70
2019-05-14T21:16:48.846Z,28.10
2019-05-14T21:19:17.384Z,27.00
2019-05-14T21:21:45.936Z,26.70
2019-05-14T21:24:14.540Z,25.40
2019-05-14T21:26:43.191Z,25.10
2019-05-14T21:29:11.708Z,25.40
2019-05-14T21:31:40.198Z,26.50
2019-05-14T21:34:08.841Z,26.60
2019-05-14T21:36:39.118Z,26.80
2019-05-14T21:39:08.089Z,26.30
2019-05-14T21:41:38.703Z,26.20
2019-05-14T21:44:08.544Z,26.20
2019-05-14T21:46:39.722Z,26.50
2019-05-14T21:49:10.529Z,26.90
2019-05-14T21:51:39.197Z,26.40
2019-05-14T21:54:09.467Z,26.20
2019-05-14T21:56:38.853Z,26.30
2019-05-14T21:59:09.513Z,26.90
2019-05-14T22:01:39.324Z,28.00
2019-05-14T22:04:11.336Z,27.80
2019-05-14T22:06:41.433Z,27.30
2019-05-14T22:09:08.922Z,27.20
2019-05-14T22:11:39.349Z,27.10
2019-05-14T22:14:07.994Z,26.90
2019-05-14T22:16:38.108Z,27.80
2019-05-14T22:19:08.537Z,28.30
2019-05-14T22:21:41.354Z,27.50
2019-05-14T22:24:07.750Z,27.70
2019-05-14T22:26:38.646Z,27.60
2019-05-14T22:29:08.300Z,27.40
2019-05-14T22:31:38.804Z,27.70
2019-05-14T22:34:08.736Z,28.60
2019-05-14T22:36:38.707Z,28.40
2019-05-14T22:39:06.999Z,29.00
2019-05-14T22:41:35.610Z,28.70
2019-05-14T22:44:04.165Z,27.90
2019-05-14T22:46:32.565Z,27.30
2019-05-14T22:49:01.174Z,27.00
2019-05-14T22:51:32.798Z,27.50
2019-05-14T22:53:59.763Z,28.00
2019-05-14T22:56:28.375Z,28.10
2019-05-14T22:58:58.265Z,28.00
2019-05-14T23:01:28.852Z,27.10
2019-05-14T23:03:59.475Z,26.70
2019-05-14T23:06:28.138Z,28.50
2019-05-14T23:08:58.120Z,27.60
2019-05-14T23:11:28.855Z,27.00
2019-05-14T23:13:58.212Z,25.80
2019-05-14T23:16:34.482Z,25.70
2019-05-14T23:18:58.301Z,26.30
2019-05-14T23:21:28.327Z,27.00
2019-05-14T23:23:58.232Z,26.90
2019-05-14T23:26:28.569Z,27.70
2019-05-14T23:28:58.725Z,28.50
2019-05-14T23:31:28.842Z,28.00
2019-05-14T23:33:58.579Z,28.30
2019-05-14T23:36:29.182Z,27.90
2019-05-14T23:38:59.085Z,27.50
2019-05-14T23:41:28.679Z,27.80
2019-05-14T23:43:57.316Z,27.90
2019-05-14T23:46:25.803Z,27.50
2019-05-14T23:48:54.406Z,27.50
2019-05-14T23:51:22.888Z,26.90
2019-05-14T23:53:51.385Z,25.70
2019-05-14T23:56:19.920Z,25.10
2019-05-14T23:58:55.828Z,25.70
